Accueil
METAR-TAF:

METAR-TAF

Aéroports :

Aéroport d'Iqaluit

Iqaluit, Nunavut, Canada

latitude: 63-45N, longitude: 068-33W, altitude: 34 m

Observation

Le bulletin a été fait il y a 1 heure et 4 minutes, à 13:00 UTC
Vent 3 kt de sud/sud-est
Température 3°C
Humidité 81%
Pression 1019 hPa
Visibilité: 48.3 km
Ciel clair

METAR: CYFB 151300Z 15003KT 30SM SKC 03/M00 A3010 RMK SLP196

Heure: 10:04 (14:04 UTC)

Prévision

Le bulletin a été fait il y a 2 heures et 24 minutes, à 11:40 UTC
Prévision valable du 15 à 12 UTC au 16 à 12 UTC
Vent 5 kt de nord
Visibilité: 10 km
Ciel clair

TAF: CYFB 151140Z 1512/1612 36005KT P6SM SKC RMK NXT FCST BY 151800Z

Observations et prévisions météorologiques de plus de 4000 aéroports (messages METAR et TAF).

Les stations disponibles sont représentées par des disques jaunes et rouges sur la carte.

Passer la souris dessus pour voir le nom de la station.

Cliquer dessus pour voir les observations et prévisions météorologiques.

Pour changer de carte: cliquez sur les boutons verts avec une croix noire pour zoomer, sur le bouton vert avec un tiret pour effectuer un zoom arrière, ou sur les flèches vertes pour les cartes adjacentes.


METAR-TAF: